Change the Weather History Date:

Thursday, November 14, 2013

  Actual Average (KGGG) Record (KGGG)
Temperature  
Mean Temperature 43 °F 57 °F  
Max Temperature 59 °F 68 °F 89 °F (1955)
Min Temperature 27 °F 46 °F 22 °F (1907)
Degree Days  
Heating Degree Days 22 9  
Month to date heating degree days 96  
Since 1 July heating degree days 185  
Cooling Degree Days 0 1  
Month to date cooling degree days 17  
Year to date cooling degree days 2412  
Moisture  
Dew Point 30 °F    
Average Humidity 64    
Maximum Humidity 100    
Minimum Humidity 32    
Precipitation  
Precipitation 0.00 in 0.16 in 1.25 in (1970)
Month to date precipitation 1.98  
Year to date precipitation 40.55  
Snow  
Snow 0.00 in - - ()
Month to date snowfall  
Since 1 July snowfall  
Since 1 September snowfall  
Snow Depth -    
Sea Level Pressure  
Sea Level Pressure 30.26 in    
Wind  
Wind Speed 4 mph (SE)    
Max Wind Speed 12 mph    
Max Gust Speed 17 mph    
Visibility 10 miles    
Events      
T = Trace of Precipitation, MM = Missing Value Source: NWS Daily Summary

Daily Weather History Graph

Daily Weather History Graph

Search for Another Location

Airport or City:

Trip Planner

Search our weather history database for the weather conditions in past years. The results will help you decide how hot, cold, wet, or windy it might be!

Date:

Astronomy

Nov. 14, 2013 Rise Set
Actual Time 6:49 AM CST 5:18 PM CST
Civil Twilight 6:23 AM CST 5:44 PM CST
Nautical Twilight 5:53 AM CST 6:14 PM CST
Astronomical Twilight 5:24 AM CST 6:43 PM CST
Moon 3:33 PM CST (11/14) 3:54 AM CST (11/14)
Length of Visible Light 11h 20m
Length of Day
10h 28m
Waxing Gibbous, 92% of the Moon is Illuminated
Nov 14
Waxing Gibbous
Nov 17
Full
Nov 25
Last Quarter
Dec 2
New
Dec 9
First Quarter

Hourly Weather History & Observations

Time (CST) Temp. Windchill Dew Point Humidity Pressure Visibility Wind Dir Wind Speed Gust Speed Precip Events Conditions
12:15 AM 30.2 °F 26.7 °F 28.4 °F 93% 30.42 in 10.0 mi SE 3.5 mph - N/A   Clear
12:35 AM 29.8 °F 24.9 °F 28.4 °F 94% 30.42 in 10.0 mi SE 4.6 mph - N/A   Clear
12:55 AM 30.4 °F 26.9 °F 28.2 °F 92% 30.41 in 10.0 mi SE 3.5 mph - N/A   Clear
1:15 AM 30.0 °F 25.2 °F 27.5 °F 90% 30.40 in 10.0 mi SE 4.6 mph - N/A   Clear
1:35 AM 30.2 °F 25.4 °F 27.5 °F 90% 30.40 in 10.0 mi SE 4.6 mph - N/A   Clear
1:55 AM 31.3 °F 27.9 °F 27.3 °F 85% 30.40 in 10.0 mi SSE 3.5 mph - N/A   Clear
2:15 AM 31.5 °F 28.1 °F 27.1 °F 84% 30.39 in 10.0 mi SE 3.5 mph - N/A   Clear
2:35 AM 31.6 °F 28.3 °F 28.4 °F 88% 30.39 in 10.0 mi SE 3.5 mph - N/A   Clear
2:55 AM 32.0 °F - 28.4 °F 87% 30.38 in 10.0 mi Calm Calm - N/A   Clear
3:15 AM 32.0 °F - 28.8 °F 88% 30.38 in 10.0 mi Calm Calm - N/A   Clear
3:35 AM 32.0 °F - 28.4 °F 87% 30.38 in 10.0 mi Calm Calm - N/A   Clear
3:55 AM 28.9 °F - 26.1 °F 89% 30.37 in 10.0 mi Calm Calm - N/A   Clear
4:15 AM 28.9 °F - 28.2 °F 97% 30.38 in 10.0 mi Calm Calm - N/A   Clear
4:35 AM 28.4 °F - 27.9 °F 98% 30.38 in 10.0 mi Calm Calm - N/A   Clear
4:55 AM 28.0 °F - 27.9 °F 99% 30.38 in 10.0 mi Calm Calm - N/A   Clear
5:15 AM 27.9 °F - 27.7 °F 99% 30.37 in 10.0 mi Calm Calm - N/A   Clear
5:35 AM 27.7 °F - 27.7 °F 100% 30.37 in 10.0 mi Calm Calm - N/A   Clear
5:55 AM 30.0 °F - 29.5 °F 98% 30.37 in 10.0 mi Calm Calm - N/A   Clear
6:15 AM 28.2 °F - 27.9 °F 99% 30.37 in 10.0 mi Calm Calm - N/A   Clear
6:35 AM 27.0 °F 23.0 °F 26.8 °F 99% 30.37 in 10.0 mi NE 3.5 mph - N/A   Clear
6:55 AM 27.5 °F - 27.5 °F 100% 30.37 in 10.0 mi Calm Calm - N/A   Clear
7:15 AM 28.2 °F 24.4 °F 28.0 °F 99% 30.37 in 10.0 mi NE 3.5 mph - N/A   Clear
7:35 AM 29.5 °F - 29.5 °F 100% 30.37 in 10.0 mi Calm Calm - N/A   Clear
7:55 AM 31.5 °F - 30.9 °F 98% 30.38 in 10.0 mi Calm Calm - N/A   Clear
8:15 AM 33.4 °F - 31.1 °F 91% 30.38 in 10.0 mi Calm Calm - N/A   Clear
8:35 AM 35.8 °F - 31.8 °F 86% 30.37 in 10.0 mi Calm Calm - N/A   Clear
8:55 AM 37.2 °F - 31.3 °F 79% 30.37 in 10.0 mi Calm Calm - N/A   Clear
9:15 AM 39.6 °F 37.4 °F 32.4 °F 75% 30.37 in 10.0 mi SE 3.5 mph - N/A   Clear
9:35 AM 41.9 °F 38.2 °F 32.5 °F 69% 30.36 in 10.0 mi SE 5.8 mph - N/A   Clear
9:55 AM 44.1 °F 40.8 °F 31.6 °F 62% 30.35 in 10.0 mi SE 5.8 mph - N/A   Clear
10:15 AM 46.2 °F 44.1 °F 31.8 °F 57% 30.34 in 10.0 mi SE 4.6 mph - N/A   Clear
10:35 AM 48.4 °F - 31.3 °F 52% 30.33 in 10.0 mi SE 9.2 mph - N/A   Clear
10:55 AM 49.5 °F - 30.6 °F 48% 30.31 in 10.0 mi SE 6.9 mph - N/A   Clear
11:15 AM 51.3 °F - 28.0 °F 41% 30.29 in 10.0 mi SSE 9.2 mph - N/A   Clear
11:35 AM 52.7 °F - 27.1 °F 37% 30.28 in 10.0 mi South 10.4 mph - N/A   Clear
11:55 AM 53.8 °F - 27.5 °F 36% 30.26 in 10.0 mi South 9.2 mph - N/A   Clear
12:15 PM 53.8 °F - 27.5 °F 36% 30.25 in 10.0 mi South 9.2 mph - N/A   Clear
12:35 PM 54.9 °F - 28.9 °F 37% 30.24 in 10.0 mi South 8.1 mph - N/A   Clear
12:55 PM 55.8 °F - 28.8 °F 36% 30.22 in 10.0 mi SSE 4.6 mph - N/A   Clear
1:15 PM 56.5 °F - 29.7 °F 36% 30.20 in 10.0 mi South 8.1 mph - N/A   Clear
1:35 PM 56.3 °F - 27.9 °F 34% 30.19 in 10.0 mi SE 10.4 mph - N/A   Clear
1:55 PM 55.8 °F - 27.9 °F 34% 30.19 in 10.0 mi SSE 5.8 mph - N/A   Clear
2:15 PM 57.2 °F - 29.5 °F 35% 30.18 in 10.0 mi SSE 6.9 mph - N/A   Clear
2:35 PM 59.2 °F - 28.9 °F 32% 30.17 in 10.0 mi SSE 10.4 mph 17.3 mph N/A   Clear
2:55 PM 58.3 °F - 29.5 °F 33% 30.17 in 10.0 mi SSE 11.5 mph - N/A   Clear
3:15 PM 58.8 °F - 28.9 °F 32% 30.16 in 10.0 mi SSE 5.8 mph - N/A   Clear
3:35 PM 58.5 °F - 28.8 °F 32% 30.17 in 10.0 mi SSE 5.8 mph - N/A   Clear
3:55 PM 58.1 °F - 27.9 °F 32% 30.16 in 10.0 mi SE 10.4 mph - N/A   Clear
4:15 PM 57.7 °F - 28.4 °F 33% 30.15 in 10.0 mi SE 10.4 mph - N/A   Clear
4:35 PM 56.5 °F - 29.3 °F 35% 30.15 in 10.0 mi SSE 6.9 mph - N/A   Clear
4:55 PM 54.0 °F - 30.4 °F 41% 30.14 in 10.0 mi SE 5.8 mph - N/A   Clear
5:15 PM 52.9 °F - 30.6 °F 43% 30.13 in 10.0 mi SE 5.8 mph - N/A   Clear
5:35 PM 52.0 °F - 30.0 °F 43% 30.13 in 10.0 mi ESE 4.6 mph - N/A   Clear
5:55 PM 51.1 °F - 31.6 °F 47% 30.13 in 10.0 mi ESE 4.6 mph - N/A   Clear
6:15 PM 51.1 °F - 32.0 °F 48% 30.13 in 10.0 mi ESE 5.8 mph - N/A   Clear
6:35 PM 50.9 °F - 32.0 °F 48% 30.13 in 10.0 mi ESE 5.8 mph - N/A   Clear
6:55 PM 50.2 °F - 32.2 °F 50% 30.13 in 10.0 mi SE 4.6 mph - N/A   Clear
7:15 PM 49.3 °F - 32.7 °F 53% 30.13 in 10.0 mi SE 5.8 mph - N/A   Scattered Clouds
7:35 PM 49.8 °F - 32.5 °F 51% 30.13 in 10.0 mi SE 4.6 mph - N/A   Mostly Cloudy
7:55 PM 49.5 °F - 32.7 °F 53% 30.13 in 10.0 mi SE 5.8 mph - N/A   Scattered Clouds
8:15 PM 49.5 °F - 33.3 °F 54% 30.13 in 10.0 mi ESE 5.8 mph - N/A   Scattered Clouds
8:35 PM 49.3 °F - 33.8 °F 55% 30.13 in 10.0 mi SE 4.6 mph - N/A   Overcast
8:55 PM 49.5 °F - 33.6 °F 54% 30.12 in 10.0 mi SE 3.5 mph - N/A   Overcast
9:15 PM 49.1 °F - 33.8 °F 56% 30.12 in 10.0 mi SE 5.8 mph - N/A   Overcast
9:35 PM 49.1 °F - 33.4 °F 55% 30.12 in 10.0 mi SE 5.8 mph - N/A   Overcast
9:55 PM 48.4 °F - 35.1 °F 60% 30.12 in 10.0 mi SE 4.6 mph - N/A   Overcast
10:15 PM 48.2 °F - 35.2 °F 61% 30.12 in 10.0 mi SE 3.5 mph - N/A   Overcast
10:35 PM 48.4 °F - 35.8 °F 62% 30.12 in 10.0 mi SE 4.6 mph - N/A   Overcast
10:55 PM 49.3 °F - 35.4 °F 59% 30.11 in 10.0 mi SSE 4.6 mph - N/A   Overcast
11:15 PM 50.2 °F - 35.6 °F 57% 30.11 in 10.0 mi SSE 6.9 mph - N/A   Overcast
11:35 PM 50.4 °F - 36.1 °F 58% 30.11 in 10.0 mi SSE 5.8 mph - N/A   Overcast
11:55 PM 50.4 °F - 37.0 °F 60% 30.10 in 10.0 mi SSE 4.6 mph - N/A   Overcast